sensor_id;sensor_type;location;lat;lon;timestamp;pressure;altitude;pressure_sealevel;temperature;humidity
20860;BME280;10590;48.154;11.514;2023-04-01T00:02:41;94511.22;;;7.03;71.29
20860;BME280;10590;48.154;11.514;2023-04-01T00:08:03;94508.44;;;6.91;71.46
20860;BME280;10590;48.154;11.514;2023-04-01T00:13:26;94497.53;;;6.93;71.49
20860;BME280;10590;48.154;11.514;2023-04-01T00:18:49;94477.09;;;6.93;71.37
20860;BME280;10590;48.154;11.514;2023-04-01T00:24:11;94472.44;;;6.90;71.37
20860;BME280;10590;48.154;11.514;2023-04-01T00:29:34;94471.50;;;6.86;71.27
20860;BME280;10590;48.154;11.514;2023-04-01T00:34:56;94480.88;;;6.84;71.72
20860;BME280;10590;48.154;11.514;2023-04-01T00:40:26;94479.78;;;6.85;71.38
20860;BME280;10590;48.154;11.514;2023-04-01T00:45:49;94480.28;;;6.78;71.57
20860;BME280;10590;48.154;11.514;2023-04-01T00:51:14;94481.84;;;6.79;71.50
20860;BME280;10590;48.154;11.514;2023-04-01T00:56:39;94479.16;;;6.88;71.70
20860;BME280;10590;48.154;11.514;2023-04-01T01:02:07;94475.53;;;6.92;71.49
20860;BME280;10590;48.154;11.514;2023-04-01T01:07:35;94479.75;;;6.93;71.57
20860;BME280;10590;48.154;11.514;2023-04-01T01:13:05;94481.59;;;7.01;70.62
20860;BME280;10590;48.154;11.514;2023-04-01T01:18:36;94477.22;;;7.06;70.38
20860;BME280;10590;48.154;11.514;2023-04-01T01:24:13;94471.91;;;7.06;70.93
20860;BME280;10590;48.154;11.514;2023-04-01T01:29:49;94474.84;;;7.13;70.76
20860;BME280;10590;48.154;11.514;2023-04-01T01:35:21;94473.41;;;7.15;70.66
20860;BME280;10590;48.154;11.514;2023-04-01T01:40:46;94473.59;;;7.10;70.40
20860;BME280;10590;48.154;11.514;2023-04-01T01:46:11;94451.00;;;7.04;70.31
20860;BME280;10590;48.154;11.514;2023-04-01T01:51:34;94464.41;;;7.08;70.32
20860;BME280;10590;48.154;11.514;2023-04-01T01:57:03;94461.13;;;7.11;69.92
20860;BME280;10590;48.154;11.514;2023-04-01T02:02:29;94476.38;;;7.14;69.98
20860;BME280;10590;48.154;11.514;2023-04-01T02:07:57;94470.63;;;7.12;69.33
20860;BME280;10590;48.154;11.514;2023-04-01T02:13:25;94467.19;;;7.11;69.32
20860;BME280;10590;48.154;11.514;2023-04-01T02:18:50;94474.06;;;7.12;69.12
20860;BME280;10590;48.154;11.514;2023-04-01T02:24:16;94470.81;;;7.07;69.63
20860;BME280;10590;48.154;11.514;2023-04-01T02:29:38;94472.38;;;7.08;69.23
20860;BME280;10590;48.154;11.514;2023-04-01T02:35:00;94482.19;;;7.07;68.97
20860;BME280;10590;48.154;11.514;2023-04-01T02:40:27;94485.16;;;7.06;69.17
20860;BME280;10590;48.154;11.514;2023-04-01T02:45:49;94485.66;;;6.99;69.77
20860;BME280;10590;48.154;11.514;2023-04-01T02:51:10;94481.78;;;6.96;69.80
20860;BME280;10590;48.154;11.514;2023-04-01T02:56:33;94486.91;;;7.01;69.47
20860;BME280;10590;48.154;11.514;2023-04-01T03:01:55;94502.53;;;6.94;69.54
20860;BME280;10590;48.154;11.514;2023-04-01T03:07:17;94494.41;;;6.91;69.95
20860;BME280;10590;48.154;11.514;2023-04-01T03:12:40;94498.31;;;6.93;69.34
20860;BME280;10590;48.154;11.514;2023-04-01T03:18:02;94494.09;;;6.92;69.89
20860;BME280;10590;48.154;11.514;2023-04-01T03:23:24;94498.97;;;6.82;69.61
20860;BME280;10590;48.154;11.514;2023-04-01T03:28:47;94496.81;;;6.75;70.14
20860;BME280;10590;48.154;11.514;2023-04-01T03:34:09;94501.53;;;6.69;70.42
20860;BME280;10590;48.154;11.514;2023-04-01T03:39:31;94505.94;;;6.57;70.63
20860;BME280;10590;48.154;11.514;2023-04-01T03:44:54;94499.28;;;6.42;70.67
20860;BME280;10590;48.154;11.514;2023-04-01T03:50:16;94509.22;;;6.54;71.23
20860;BME280;10590;48.154;11.514;2023-04-01T03:55:38;94519.34;;;6.52;71.33
20860;BME280;10590;48.154;11.514;2023-04-01T04:01:01;94519.22;;;6.48;71.57
20860;BME280;10590;48.154;11.514;2023-04-01T04:06:24;94527.16;;;6.39;71.97
20860;BME280;10590;48.154;11.514;2023-04-01T04:11:45;94526.06;;;6.41;71.78
20860;BME280;10590;48.154;11.514;2023-04-01T04:17:09;94521.25;;;6.43;72.24
20860;BME280;10590;48.154;11.514;2023-04-01T04:22:34;94519.84;;;6.45;72.14
20860;BME280;10590;48.154;11.514;2023-04-01T04:27:55;94524.03;;;6.55;72.70
20860;BME280;10590;48.154;11.514;2023-04-01T04:33:18;94514.66;;;6.57;72.17
20860;BME280;10590;48.154;11.514;2023-04-01T04:38:40;94529.75;;;6.65;71.56
20860;BME280;10590;48.154;11.514;2023-04-01T04:44:02;94538.94;;;6.68;71.64
20860;BME280;10590;48.154;11.514;2023-04-01T04:49:25;94525.69;;;6.68;71.73
20860;BME280;10590;48.154;11.514;2023-04-01T04:54:46;94545.59;;;6.83;70.76
20860;BME280;10590;48.154;11.514;2023-04-01T05:00:09;94551.97;;;6.90;70.63
20860;BME280;10590;48.154;11.514;2023-04-01T05:05:33;94553.38;;;6.96;70.14
20860;BME280;10590;48.154;11.514;2023-04-01T05:10:54;94546.50;;;7.04;69.56
20860;BME280;10590;48.154;11.514;2023-04-01T05:16:18;94525.91;;;7.01;69.33
20860;BME280;10590;48.154;11.514;2023-04-01T05:21:41;94534.56;;;7.19;68.08
20860;BME280;10590;48.154;11.514;2023-04-01T05:27:03;94538.31;;;7.18;68.10
20860;BME280;10590;48.154;11.514;2023-04-01T05:32:25;94538.44;;;7.21;67.94
20860;BME280;10590;48.154;11.514;2023-04-01T05:37:48;94532.97;;;7.26;67.90
20860;BME280;10590;48.154;11.514;2023-04-01T05:43:10;94536.94;;;7.41;66.65
20860;BME280;10590;48.154;11.514;2023-04-01T05:48:32;94538.19;;;7.44;66.62
20860;BME280;10590;48.154;11.514;2023-04-01T05:53:56;94535.97;;;7.46;66.08
20860;BME280;10590;48.154;11.514;2023-04-01T05:59:18;94536.69;;;8.05;64.24
20860;BME280;10590;48.154;11.514;2023-04-01T06:04:40;94536.38;;;7.56;65.44
20860;BME280;10590;48.154;11.514;2023-04-01T06:10:10;94532.94;;;7.56;65.07
20860;BME280;10590;48.154;11.514;2023-04-01T06:15:40;94545.22;;;8.11;63.45
20860;BME280;10590;48.154;11.514;2023-04-01T06:21:19;94537.44;;;8.26;62.75
20860;BME280;10590;48.154;11.514;2023-04-01T06:26:53;94531.47;;;9.56;58.59
20860;BME280;10590;48.154;11.514;2023-04-01T06:44:24;94539.50;;;8.75;59.81
20860;BME280;10590;48.154;11.514;2023-04-01T06:49:56;94538.41;;;8.43;59.78
20860;BME280;10590;48.154;11.514;2023-04-01T06:55:28;94543.59;;;11.69;50.65
20860;BME280;10590;48.154;11.514;2023-04-01T07:00:57;94547.78;;;9.18;58.09
20860;BME280;10590;48.154;11.514;2023-04-01T07:06:25;94556.78;;;9.63;56.34
20860;BME280;10590;48.154;11.514;2023-04-01T07:11:48;94558.47;;;8.52;59.90
20860;BME280;10590;48.154;11.514;2023-04-01T07:17:15;94554.75;;;9.11;57.93
20860;BME280;10590;48.154;11.514;2023-04-01T07:22:40;94545.25;;;10.95;52.80
20860;BME280;10590;48.154;11.514;2023-04-01T07:28:06;94544.31;;;11.03;52.19
20860;BME280;10590;48.154;11.514;2023-04-01T07:33:35;94564.56;;;9.55;55.72
20860;BME280;10590;48.154;11.514;2023-04-01T07:39:08;94557.00;;;10.62;52.95
20860;BME280;10590;48.154;11.514;2023-04-01T07:44:38;94556.41;;;12.30;50.42
20860;BME280;10590;48.154;11.514;2023-04-01T07:50:13;94549.47;;;10.12;56.25
20860;BME280;10590;48.154;11.514;2023-04-01T07:55:45;94553.09;;;10.32;54.50
20860;BME280;10590;48.154;11.514;2023-04-01T08:01:14;94568.84;;;9.48;56.04
20860;BME280;10590;48.154;11.514;2023-04-01T08:06:42;94561.19;;;9.46;56.06
20860;BME280;10590;48.154;11.514;2023-04-01T08:12:15;94552.22;;;9.51;56.73
20860;BME280;10590;48.154;11.514;2023-04-01T08:17:47;94557.53;;;9.51;56.04
20860;BME280;10590;48.154;11.514;2023-04-01T08:23:16;94552.19;;;9.87;55.03
20860;BME280;10590;48.154;11.514;2023-04-01T08:28:43;94554.00;;;10.79;52.73
20860;BME280;10590;48.154;11.514;2023-04-01T08:34:13;94545.94;;;11.23;50.74
20860;BME280;10590;48.154;11.514;2023-04-01T08:39:40;94547.53;;;13.06;46.12
20860;BME280;10590;48.154;11.514;2023-04-01T08:45:14;94548.16;;;10.74;51.53
20860;BME280;10590;48.154;11.514;2023-04-01T08:56:30;94536.22;;;11.46;49.74
20860;BME280;10590;48.154;11.514;2023-04-01T09:02:05;94542.06;;;10.89;50.82
20860;BME280;10590;48.154;11.514;2023-04-01T09:07:40;94552.25;;;12.52;47.22
20860;BME280;10590;48.154;11.514;2023-04-01T09:13:19;94533.09;;;12.30;47.56
20860;BME280;10590;48.154;11.514;2023-04-01T09:19:08;94544.72;;;11.68;49.50
20860;BME280;10590;48.154;11.514;2023-04-01T09:30:54;94530.44;;;10.81;50.80
20860;BME280;10590;48.154;11.514;2023-04-01T09:36:33;94533.38;;;11.39;49.72
20860;BME280;10590;48.154;11.514;2023-04-01T09:42:23;94517.56;;;12.01;47.23
20860;BME280;10590;48.154;11.514;2023-04-01T09:48:02;94519.38;;;13.16;45.84
20860;BME280;10590;48.154;11.514;2023-04-01T09:53:41;94507.66;;;12.01;47.88
20860;BME280;10590;48.154;11.514;2023-04-01T09:59:28;94521.00;;;11.82;47.93
20860;BME280;10590;48.154;11.514;2023-04-01T10:05:33;94512.13;;;11.78;48.43
20860;BME280;10590;48.154;11.514;2023-04-01T10:11:30;94510.34;;;11.51;49.47
20860;BME280;10590;48.154;11.514;2023-04-01T10:17:25;94504.22;;;12.01;48.10
20860;BME280;10590;48.154;11.514;2023-04-01T10:23:20;94496.78;;;12.29;47.33
20860;BME280;10590;48.154;11.514;2023-04-01T10:29:11;94492.34;;;12.18;47.98
20860;BME280;10590;48.154;11.514;2023-04-01T10:34:56;94504.97;;;12.01;48.42
20860;BME280;10590;48.154;11.514;2023-04-01T10:40:41;94505.47;;;11.37;50.16
20860;BME280;10590;48.154;11.514;2023-04-01T10:46:46;94515.53;;;11.12;52.04
20860;BME280;10590;48.154;11.514;2023-04-01T10:52:54;94515.16;;;10.66;53.27
20860;BME280;10590;48.154;11.514;2023-04-01T10:58:50;94541.28;;;10.45;54.57
20860;BME280;10590;48.154;11.514;2023-04-01T11:04:58;94537.97;;;9.96;59.14
20860;BME280;10590;48.154;11.514;2023-04-01T11:17:01;94539.16;;;9.98;62.37
20860;BME280;10590;48.154;11.514;2023-04-01T11:34:44;94539.66;;;10.28;60.78
20860;BME280;10590;48.154;11.514;2023-04-01T11:40:20;94552.63;;;9.89;60.84
20860;BME280;10590;48.154;11.514;2023-04-01T11:45:49;94563.97;;;9.25;64.26
20860;BME280;10590;48.154;11.514;2023-04-01T11:51:52;94563.47;;;8.87;67.64
20860;BME280;10590;48.154;11.514;2023-04-01T11:57:35;94554.41;;;8.55;69.65
20860;BME280;10590;48.154;11.514;2023-04-01T12:03:15;94576.84;;;8.24;71.34
20860;BME280;10590;48.154;11.514;2023-04-01T12:08:50;94569.06;;;8.19;71.30
20860;BME280;10590;48.154;11.514;2023-04-01T12:14:21;94570.56;;;8.08;72.46
20860;BME280;10590;48.154;11.514;2023-04-01T12:19:54;94566.34;;;7.86;73.70
20860;BME280;10590;48.154;11.514;2023-04-01T12:31:01;94558.88;;;7.80;73.32
20860;BME280;10590;48.154;11.514;2023-04-01T12:36:37;94567.59;;;7.89;72.54
20860;BME280;10590;48.154;11.514;2023-04-01T12:42:10;94568.56;;;7.84;72.10
20860;BME280;10590;48.154;11.514;2023-04-01T12:48:05;94573.56;;;7.77;71.51
20860;BME280;10590;48.154;11.514;2023-04-01T12:53:40;94567.13;;;7.87;72.42
20860;BME280;10590;48.154;11.514;2023-04-01T12:59:22;94570.31;;;7.80;72.42
20860;BME280;10590;48.154;11.514;2023-04-01T13:16:37;94579.44;;;7.91;71.27
20860;BME280;10590;48.154;11.514;2023-04-01T13:22:06;94582.78;;;7.80;72.00
20860;BME280;10590;48.154;11.514;2023-04-01T13:27:35;94594.84;;;7.98;71.90
20860;BME280;10590;48.154;11.514;2023-04-01T13:33:04;94593.94;;;7.94;73.34
20860;BME280;10590;48.154;11.514;2023-04-01T13:39:02;94598.25;;;7.78;73.71
20860;BME280;10590;48.154;11.514;2023-04-01T13:44:30;94599.59;;;7.63;74.45
20860;BME280;10590;48.154;11.514;2023-04-01T13:56:08;94593.56;;;8.04;72.55
20860;BME280;10590;48.154;11.514;2023-04-01T14:01:40;94599.34;;;8.06;71.73
20860;BME280;10590;48.154;11.514;2023-04-01T14:07:22;94604.16;;;8.34;72.65
20860;BME280;10590;48.154;11.514;2023-04-01T14:12:56;94584.50;;;8.05;72.73
20860;BME280;10590;48.154;11.514;2023-04-01T14:18:57;94587.94;;;8.26;71.69
20860;BME280;10590;48.154;11.514;2023-04-01T14:24:36;94584.50;;;8.47;69.44
20860;BME280;10590;48.154;11.514;2023-04-01T14:30:26;94603.56;;;8.49;69.67
20860;BME280;10590;48.154;11.514;2023-04-01T14:36:02;94600.84;;;8.90;68.99
20860;BME280;10590;48.154;11.514;2023-04-01T14:41:38;94604.41;;;8.94;70.31
20860;BME280;10590;48.154;11.514;2023-04-01T14:53:28;94603.06;;;8.88;70.65
20860;BME280;10590;48.154;11.514;2023-04-01T14:58:57;94584.78;;;8.66;70.13
20860;BME280;10590;48.154;11.514;2023-04-01T15:04:37;94593.50;;;8.54;71.83
20860;BME280;10590;48.154;11.514;2023-04-01T15:10:28;94609.47;;;8.34;72.30
20860;BME280;10590;48.154;11.514;2023-04-01T15:16:05;94607.59;;;8.34;71.80
20860;BME280;10590;48.154;11.514;2023-04-01T15:21:46;94589.00;;;8.34;70.66
20860;BME280;10590;48.154;11.514;2023-04-01T15:27:30;94617.34;;;8.63;69.22
20860;BME280;10590;48.154;11.514;2023-04-01T15:33:07;94631.28;;;8.60;67.14
20860;BME280;10590;48.154;11.514;2023-04-01T15:38:35;94615.38;;;8.93;67.49
20860;BME280;10590;48.154;11.514;2023-04-01T15:44:00;94624.78;;;8.90;67.87
20860;BME280;10590;48.154;11.514;2023-04-01T15:49:30;94640.78;;;9.03;67.08
20860;BME280;10590;48.154;11.514;2023-04-01T15:55:15;94626.28;;;9.12;63.79
20860;BME280;10590;48.154;11.514;2023-04-01T16:00:53;94625.72;;;9.19;62.79
20860;BME280;10590;48.154;11.514;2023-04-01T16:06:38;94628.66;;;9.38;61.89
20860;BME280;10590;48.154;11.514;2023-04-01T16:12:15;94617.88;;;9.35;61.77
20860;BME280;10590;48.154;11.514;2023-04-01T16:17:53;94631.63;;;9.24;60.42
20860;BME280;10590;48.154;11.514;2023-04-01T16:23:22;94639.94;;;9.23;60.66
20860;BME280;10590;48.154;11.514;2023-04-01T16:28:54;94623.84;;;9.19;61.34
20860;BME280;10590;48.154;11.514;2023-04-01T16:34:20;94627.25;;;9.08;61.10
20860;BME280;10590;48.154;11.514;2023-04-01T16:39:47;94630.38;;;9.10;61.56
20860;BME280;10590;48.154;11.514;2023-04-01T16:45:24;94626.91;;;8.97;61.94
20860;BME280;10590;48.154;11.514;2023-04-01T16:50:55;94625.19;;;8.80;61.03
20860;BME280;10590;48.154;11.514;2023-04-01T16:56:22;94637.63;;;8.88;61.02
20860;BME280;10590;48.154;11.514;2023-04-01T17:01:48;94651.78;;;8.80;60.36
20860;BME280;10590;48.154;11.514;2023-04-01T17:07:28;94655.44;;;8.76;60.33
20860;BME280;10590;48.154;11.514;2023-04-01T17:13:14;94655.19;;;8.69;60.74
20860;BME280;10590;48.154;11.514;2023-04-01T17:18:45;94657.69;;;8.65;60.27
20860;BME280;10590;48.154;11.514;2023-04-01T17:24:25;94654.53;;;8.72;60.76
20860;BME280;10590;48.154;11.514;2023-04-01T17:30:08;94662.22;;;8.65;61.19
20860;BME280;10590;48.154;11.514;2023-04-01T17:35:36;94665.66;;;8.65;60.43
20860;BME280;10590;48.154;11.514;2023-04-01T17:41:07;94658.00;;;8.63;60.82
20860;BME280;10590;48.154;11.514;2023-04-01T17:46:45;94673.19;;;8.63;60.89
20860;BME280;10590;48.154;11.514;2023-04-01T17:52:12;94677.59;;;8.59;60.43
20860;BME280;10590;48.154;11.514;2023-04-01T17:57:46;94686.69;;;8.58;60.72
20860;BME280;10590;48.154;11.514;2023-04-01T18:03:23;94684.81;;;8.58;60.83
20860;BME280;10590;48.154;11.514;2023-04-01T18:09:00;94679.16;;;8.60;60.96
20860;BME280;10590;48.154;11.514;2023-04-01T18:14:45;94695.13;;;8.60;60.86
20860;BME280;10590;48.154;11.514;2023-04-01T18:20:25;94700.09;;;8.61;61.44
20860;BME280;10590;48.154;11.514;2023-04-01T18:25:54;94707.50;;;8.56;61.56
20860;BME280;10590;48.154;11.514;2023-04-01T18:31:20;94717.94;;;8.40;63.57
20860;BME280;10590;48.154;11.514;2023-04-01T18:36:45;94717.03;;;8.27;64.50
20860;BME280;10590;48.154;11.514;2023-04-01T18:42:15;94718.78;;;8.23;64.39
20860;BME280;10590;48.154;11.514;2023-04-01T18:47:43;94713.19;;;8.16;64.66
20860;BME280;10590;48.154;11.514;2023-04-01T18:53:17;94729.56;;;8.27;63.98
20860;BME280;10590;48.154;11.514;2023-04-01T18:58:48;94739.41;;;8.26;65.05
20860;BME280;10590;48.154;11.514;2023-04-01T19:04:23;94748.94;;;8.27;65.51
20860;BME280;10590;48.154;11.514;2023-04-01T19:09:49;94746.00;;;8.20;65.96
20860;BME280;10590;48.154;11.514;2023-04-01T19:15:24;94751.97;;;8.17;65.68
20860;BME280;10590;48.154;11.514;2023-04-01T19:20:53;94748.44;;;8.05;66.57
20860;BME280;10590;48.154;11.514;2023-04-01T19:26:21;94747.00;;;8.07;66.92
20860;BME280;10590;48.154;11.514;2023-04-01T19:31:53;94769.41;;;7.97;67.36
20860;BME280;10590;48.154;11.514;2023-04-01T19:37:27;94773.50;;;7.86;67.73
20860;BME280;10590;48.154;11.514;2023-04-01T19:42:58;94781.47;;;7.78;67.86
20860;BME280;10590;48.154;11.514;2023-04-01T19:48:41;94781.19;;;7.71;68.09
20860;BME280;10590;48.154;11.514;2023-04-01T19:54:17;94789.81;;;7.59;68.10
20860;BME280;10590;48.154;11.514;2023-04-01T19:59:45;94776.69;;;7.54;68.56
20860;BME280;10590;48.154;11.514;2023-04-01T20:05:25;94787.66;;;7.44;68.73
20860;BME280;10590;48.154;11.514;2023-04-01T20:10:59;94794.22;;;7.38;68.89
20860;BME280;10590;48.154;11.514;2023-04-01T20:16:43;94803.44;;;7.31;68.85
20860;BME280;10590;48.154;11.514;2023-04-01T20:22:23;94800.94;;;7.26;69.32
20860;BME280;10590;48.154;11.514;2023-04-01T20:27:54;94807.50;;;7.29;69.19
20860;BME280;10590;48.154;11.514;2023-04-01T20:33:37;94810.78;;;7.26;69.41
20860;BME280;10590;48.154;11.514;2023-04-01T20:39:26;94813.59;;;7.29;68.92
20860;BME280;10590;48.154;11.514;2023-04-01T20:50:45;94813.59;;;7.29;68.71
20860;BME280;10590;48.154;11.514;2023-04-01T20:56:18;94827.94;;;7.28;68.95
20860;BME280;10590;48.154;11.514;2023-04-01T21:01:53;94829.03;;;7.27;69.28
20860;BME280;10590;48.154;11.514;2023-04-01T21:07:21;94823.13;;;7.22;69.40
20860;BME280;10590;48.154;11.514;2023-04-01T21:12:53;94828.25;;;7.18;68.95
20860;BME280;10590;48.154;11.514;2023-04-01T21:18:30;94836.22;;;7.18;69.55
20860;BME280;10590;48.154;11.514;2023-04-01T21:24:23;94839.03;;;7.22;69.41
20860;BME280;10590;48.154;11.514;2023-04-01T21:29:55;94841.22;;;7.20;69.48
20860;BME280;10590;48.154;11.514;2023-04-01T21:35:29;94848.88;;;7.21;69.54
20860;BME280;10590;48.154;11.514;2023-04-01T21:41:15;94849.34;;;7.32;68.76
20860;BME280;10590;48.154;11.514;2023-04-01T21:46:59;94849.81;;;7.34;69.08
20860;BME280;10590;48.154;11.514;2023-04-01T22:04:50;94866.34;;;7.31;69.07
20860;BME280;10590;48.154;11.514;2023-04-01T22:10:21;94871.81;;;7.34;68.69
20860;BME280;10590;48.154;11.514;2023-04-01T22:16:05;94869.47;;;7.33;68.54
20860;BME280;10590;48.154;11.514;2023-04-01T22:21:39;94878.06;;;7.39;68.67
20860;BME280;10590;48.154;11.514;2023-04-01T22:27:21;94878.22;;;7.33;69.17
20860;BME280;10590;48.154;11.514;2023-04-01T22:32:45;94888.34;;;7.40;68.64
20860;BME280;10590;48.154;11.514;2023-04-01T22:38:18;94881.19;;;7.32;68.72
20860;BME280;10590;48.154;11.514;2023-04-01T22:43:44;94886.47;;;7.41;68.34
20860;BME280;10590;48.154;11.514;2023-04-01T22:49:11;94870.56;;;7.32;68.42
20860;BME280;10590;48.154;11.514;2023-04-01T22:54:42;94886.00;;;7.47;68.34
20860;BME280;10590;48.154;11.514;2023-04-01T23:00:08;94890.53;;;7.47;67.96
20860;BME280;10590;48.154;11.514;2023-04-01T23:05:34;94887.88;;;7.38;68.64
20860;BME280;10590;48.154;11.514;2023-04-01T23:11:01;94889.59;;;7.34;68.42
20860;BME280;10590;48.154;11.514;2023-04-01T23:16:28;94896.78;;;7.33;68.06
20860;BME280;10590;48.154;11.514;2023-04-01T23:21:54;94898.03;;;7.36;68.50
20860;BME280;10590;48.154;11.514;2023-04-01T23:27:28;94910.22;;;7.37;68.22
20860;BME280;10590;48.154;11.514;2023-04-01T23:32:50;94914.59;;;7.33;68.33
20860;BME280;10590;48.154;11.514;2023-04-01T23:38:12;94918.78;;;7.34;68.79
20860;BME280;10590;48.154;11.514;2023-04-01T23:43:38;94925.34;;;7.28;68.40
20860;BME280;10590;48.154;11.514;2023-04-01T23:49:03;94927.84;;;7.33;68.70
20860;BME280;10590;48.154;11.514;2023-04-01T23:54:32;94920.03;;;7.28;68.79
